Ryazhsk, Russia
Current Conditions -  °F | °C
As of 4:00 PM on Thursday 23 Oct 2014 (Local Time) from UUDD Reporting Station
Few Clouds Few Clouds  
Wind Chill: -14°   Ceiling: Unl
Heat Index: -6°   Visibility: 6mi
Dew Point: -13°   Wind: 18mph
Humidity: 58%   Direction: 330°NNW
Pressure: 30.3"   Gusts: NA
Location:  53.71°N, 40.07°E
Report Text: UUDD 231300Z 33008MPS 9999 FEW030 M06/M13 Q1026 3219009582190095 NOSIG
Loading
Personal Weather Stations






























Interactive Weather Map
Tropical Storm Tracking
New forecast layout! Learn more

10-Day Weather Forecast

Advertisements
Track Severe Weather on mobile